Time;durP1;ratioP1;P1;durP2;ratioP2;P2;SDS_P1;SDS_P2;PMS_P1;PMS_P2;Temp;Humidity;BMP_temperature;BMP_pressure;BME280_temperature;BME280_humidity;BME280_pressure;Samples;Min_cycle;Max_cycle;Signal;HPM_P1;HPM_P2
2021/06/23 00:00:25;;;;;;;;;48.50;34.50;;;;;19.27;55.81;101352.47;5079748;27;45615;-78
2021/06/23 00:02:51;;;;;;;;;45.50;33.75;;;;;19.26;55.77;101356.13;5078414;28;45364;-79
2021/06/23 00:05:17;;;;;;;;;42.25;33.25;;;;;19.24;55.40;101350.06;5080159;27;45500;-79
2021/06/23 00:07:43;;;;;;;;;43.75;36.00;;;;;19.24;55.75;101347.38;5078148;27;45429;-78
2021/06/23 00:10:09;;;;;;;;;42.00;33.50;;;;;19.23;57.50;101347.53;5081790;28;48098;-78
2021/06/23 00:12:34;;;;;;;;;48.75;34.75;;;;;19.23;56.59;101351.06;5079889;27;45472;-79
2021/06/23 00:15:00;;;;;;;;;46.75;34.25;;;;;19.23;56.56;101348.38;5078383;27;45481;-78
2021/06/23 00:17:28;;;;;;;;;32.50;29.50;;;;;19.21;56.57;101342.31;5078077;28;45319;-78
2021/06/23 00:19:54;;;;;;;;;35.50;27.50;;;;;19.22;56.22;101346.69;5077751;27;46009;-79
2021/06/23 00:22:19;;;;;;;;;33.25;30.25;;;;;19.22;56.64;101337.78;5079368;27;45346;-79
2021/06/23 00:24:44;;;;;;;;;36.25;30.25;;;;;19.18;56.40;101347.13;5079927;27;45305;-78
2021/06/23 00:27:10;;;;;;;;;44.50;33.00;;;;;19.13;56.22;101346.69;5079545;28;45611;-79
2021/06/23 00:29:35;;;;;;;;;38.25;33.75;;;;;19.14;56.62;101351.91;5082061;28;48263;-78
2021/06/23 00:32:02;;;;;;;;;35.75;30.50;;;;;19.14;56.52;101343.88;5079410;27;45261;-79
2021/06/23 00:34:30;;;;;;;;;39.00;32.75;;;;;19.13;56.35;101344.88;5085174;28;45487;-78
2021/06/23 00:36:56;;;;;;;;;37.00;31.25;;;;;19.12;56.15;101342.38;5081722;28;45883;-79
2021/06/23 00:39:22;;;;;;;;;36.00;31.50;;;;;19.10;56.25;101345.19;5081825;28;46949;-78
2021/06/23 00:41:47;;;;;;;;;41.75;32.75;;;;;19.15;56.52;101350.09;5083874;28;45413;-79
2021/06/23 00:44:13;;;;;;;;;33.00;28.50;;;;;19.13;56.67;101342.19;5080172;27;45398;-78
2021/06/23 00:46:41;;;;;;;;;40.50;28.25;;;;;19.13;56.62;101358.25;5082447;28;45517;-79
2021/06/23 00:49:09;;;;;;;;;40.75;31.25;;;;;19.13;56.15;101355.56;5082319;28;47032;-78
2021/06/23 00:51:35;;;;;;;;;34.50;27.00;;;;;19.12;56.67;101359.25;5082461;27;45286;-78
2021/06/23 00:54:00;;;;;;;;;29.50;25.50;;;;;19.12;55.95;101355.75;5080019;27;45867;-78
2021/06/23 00:56:35;;;;;;;;;30.50;28.50;;;;;19.12;56.36;101358.44;5081324;28;45456;-79
2021/06/23 00:59:01;;;;;;;;;30.00;28.00;;;;;19.15;55.93;101353.59;5080739;28;48334;-79
2021/06/23 01:01:30;;;;;;;;;34.25;29.50;;;;;19.14;56.61;101359.94;5082492;27;45418;-79
2021/06/23 01:03:57;;;;;;;;;36.00;30.75;;;;;19.12;56.18;101353.88;5098606;27;45396;-78
2021/06/23 01:06:23;;;;;;;;;30.00;26.00;;;;;19.13;55.88;101354.72;5080622;28;45468;-79
2021/06/23 01:08:49;;;;;;;;;30.50;26.75;;;;;19.11;56.22;101351.38;5083080;28;46559;-78
2021/06/23 01:11:15;;;;;;;;;39.50;28.00;;;;;19.12;56.22;101353.06;5083875;27;45891;-79
2021/06/23 01:14:02;;;;;;;;;39.25;32.75;;;;;19.11;55.59;101357.56;5083147;28;45443;-79
2021/06/23 01:16:30;;;;;;;;;38.50;30.25;;;;;19.10;56.21;101355.88;5083085;27;45378;-78
2021/06/23 01:19:00;;;;;;;;;45.75;33.50;;;;;19.09;56.24;101351.53;5080928;27;48473;-78
2021/06/23 01:21:28;;;;;;;;;40.75;33.75;;;;;19.07;56.02;101353.47;5081799;27;45394;-78
2021/06/23 01:23:54;;;;;;;;;37.00;27.50;;;;;19.08;56.11;101357.00;5082692;27;45255;-78
2021/06/23 01:26:19;;;;;;;;;42.50;30.75;;;;;19.05;56.04;101353.63;5081029;28;45867;-78
2021/06/23 01:28:45;;;;;;;;;49.50;37.25;;;;;19.08;56.31;101354.34;5082558;27;45255;-78
2021/06/23 01:31:11;;;;;;;;;39.00;31.75;;;;;19.04;56.49;101348.41;5081455;27;45320;-77
2021/06/23 01:33:37;;;;;;;;;34.25;30.25;;;;;19.05;56.20;101364.34;5082471;28;44768;-78
2021/06/23 01:36:03;;;;;;;;;40.25;30.50;;;;;19.03;56.37;101352.91;5081098;28;45538;-78
2021/06/23 01:38:29;;;;;;;;;35.50;31.25;;;;;19.05;55.98;101356.31;5082154;27;45365;-78
2021/06/23 01:40:54;;;;;;;;;49.25;35.25;;;;;19.04;56.53;101348.41;5080956;28;45507;-78
2021/06/23 01:43:20;;;;;;;;;43.25;35.50;;;;;19.06;56.25;101357.16;5079929;27;45301;-78
2021/06/23 01:45:47;;;;;;;;;38.25;33.25;;;;;19.03;56.50;101354.75;5081695;28;45386;-78
2021/06/23 01:48:20;;;;;;;;;42.75;33.50;;;;;19.02;56.22;101355.75;5081922;28;45465;-78
2021/06/23 01:50:55;;;;;;;;;39.75;34.25;;;;;19.00;56.51;101353.22;5082115;28;45350;-77
2021/06/23 01:53:21;;;;;;;;;46.50;33.25;;;;;18.96;56.72;101359.00;5085362;27;45389;-77
2021/06/23 01:55:49;;;;;;;;;39.50;33.50;;;;;18.96;56.45;101359.84;5082844;27;45918;-78
2021/06/23 01:58:14;;;;;;;;;47.50;33.25;;;;;18.95;56.31;101352.78;5080266;28;47520;-77
2021/06/23 02:00:48;;;;;;;;;44.75;31.25;;;;;18.94;56.89;101359.13;5080206;28;46295;-78
2021/06/23 02:03:38;;;;;;;;;47.00;35.75;;;;;18.91;57.11;101351.41;5080673;27;45309;-78
2021/06/23 02:06:08;;;;;;;;;37.75;35.00;;;;;18.91;56.66;101353.22;5058937;28;45295;-78
2021/06/23 02:09:01;;;;;;;;;43.25;34.25;;;;;18.92;56.98;101352.25;5069982;28;45633;-78
2021/06/23 02:11:39;;;;;;;;;39.50;33.75;;;;;18.88;57.87;101348.16;5097338;27;45990;-78
2021/06/23 02:14:20;;;;;;;;;42.00;33.50;;;;;18.86;61.58;101350.97;5099504;27;45435;-77
2021/06/23 02:16:49;;;;;;;;;36.00;34.00;;;;;18.85;57.42;101341.25;5083443;27;44819;-78
2021/06/23 02:19:15;;;;;;;;;35.50;30.50;;;;;18.83;57.46;101343.25;5078204;28;48241;-78
2021/06/23 02:21:41;;;;;;;;;31.75;24.75;;;;;18.83;57.45;101340.56;5081097;27;45248;-78
2021/06/23 02:24:08;;;;;;;;;37.75;30.50;;;;;18.84;57.63;101341.41;5081477;27;45214;-78
2021/06/23 02:26:34;;;;;;;;;44.00;33.50;;;;;18.85;57.21;101343.06;5081396;27;45302;-78
2021/06/23 02:29:01;;;;;;;;;36.50;32.50;;;;;18.86;57.47;101344.78;5081328;27;45525;-78
2021/06/23 02:31:31;;;;;;;;;36.75;31.25;;;;;18.86;57.64;101344.78;5077019;27;45417;-77
2021/06/23 02:33:57;;;;;;;;;39.75;32.50;;;;;18.88;56.92;101340.97;5083837;28;45459;-78
2021/06/23 02:36:24;;;;;;;;;34.50;28.25;;;;;18.89;57.33;101337.31;5083678;27;45358;-78
2021/06/23 02:38:51;;;;;;;;;36.25;31.75;;;;;18.90;56.91;101349.72;5081008;27;45661;-78
2021/06/23 02:41:18;;;;;;;;;39.50;35.00;;;;;18.89;57.04;101342.66;5081245;27;45658;-78
2021/06/23 02:43:44;;;;;;;;;39.25;30.25;;;;;18.88;57.07;101349.00;5080501;27;45282;-78
2021/06/23 02:46:10;;;;;;;;;35.75;26.75;;;;;18.89;56.83;101352.53;5080584;27;45364;-78
2021/06/23 02:48:36;;;;;;;;;31.50;29.50;;;;;18.91;57.38;101353.22;5080519;28;46125;-78
2021/06/23 02:51:06;;;;;;;;;38.25;30.00;;;;;18.94;56.93;101360.97;5080450;28;46004;-78
2021/06/23 02:53:34;;;;;;;;;33.75;28.75;;;;;18.93;56.71;101357.47;5084108;27;45321;-77
2021/06/23 02:56:00;;;;;;;;;30.75;25.25;;;;;18.93;56.83;101357.47;5083365;27;45450;-78
2021/06/23 02:58:26;;;;;;;;;37.25;30.25;;;;;18.93;57.29;101356.63;5079822;27;46502;-78
2021/06/23 03:00:53;;;;;;;;;45.50;30.50;;;;;18.94;56.97;101366.31;5080680;27;45280;-78
2021/06/23 03:03:19;;;;;;;;;30.50;23.25;;;;;18.92;56.65;101354.94;5079642;28;45577;-78
2021/06/23 03:05:45;;;;;;;;;33.00;24.75;;;;;18.90;57.36;101362.25;5079613;28;45546;-78
2021/06/23 03:08:10;;;;;;;;;32.75;26.50;;;;;18.93;57.40;101364.66;5077022;28;47140;-78
2021/06/23 03:10:35;;;;;;;;;32.00;26.00;;;;;18.94;57.07;101356.44;5079434;28;45338;-78
2021/06/23 03:13:02;;;;;;;;;28.75;23.25;;;;;18.96;57.09;101356.31;5080180;28;45406;-78
2021/06/23 03:15:27;;;;;;;;;31.50;25.00;;;;;18.96;56.78;101359.84;5084300;27;46401;-78
2021/06/23 03:17:53;;;;;;;;;22.50;21.75;;;;;18.95;57.20;101352.78;5081915;28;46876;-78
2021/06/23 03:20:18;;;;;;;;;30.50;24.00;;;;;18.93;56.83;101353.94;5076892;28;45841;-78
2021/06/23 03:22:44;;;;;;;;;28.50;22.00;;;;;18.94;57.03;101358.28;5079333;28;45404;-78
2021/06/23 03:25:09;;;;;;;;;22.00;21.50;;;;;18.92;56.44;101357.59;5079178;28;45641;-78
2021/06/23 03:27:35;;;;;;;;;31.00;26.25;;;;;18.94;56.87;101347.56;5078964;28;46776;-78
2021/06/23 03:30:01;;;;;;;;;22.25;18.50;;;;;18.94;57.03;101353.78;5078988;28;45334;-78
2021/06/23 03:32:26;;;;;;;;;25.00;19.75;;;;;18.93;57.17;101348.59;5067722;28;45412;-78
2021/06/23 03:34:52;;;;;;;;;22.25;19.25;;;;;18.94;56.89;101352.94;5075542;28;45553;-77
2021/06/23 03:37:17;;;;;;;;;20.00;19.75;;;;;18.92;56.65;101344.22;5076323;28;48204;-78
2021/06/23 03:39:43;;;;;;;;;26.75;24.00;;;;;18.91;57.97;101345.19;5080179;28;45917;-78
2021/06/23 03:42:09;;;;;;;;;26.50;20.50;;;;;18.90;56.75;101357.75;5080158;28;45469;-77
2021/06/23 03:44:35;;;;;;;;;24.75;21.50;;;;;18.89;57.11;101349.84;5079044;27;45546;-78
2021/06/23 03:47:02;;;;;;;;;22.00;20.00;;;;;18.86;57.02;101358.16;5078824;28;47113;-78
2021/06/23 03:49:28;;;;;;;;;22.25;20.50;;;;;18.85;57.32;101351.09;5078833;28;45418;-78
2021/06/23 03:51:53;;;;;;;;;24.50;22.75;;;;;18.83;57.21;101355.78;5080575;27;45227;-78
2021/06/23 03:54:19;;;;;;;;;26.25;22.25;;;;;18.79;58.03;101354.34;5080728;27;45309;-78
2021/06/23 03:56:45;;;;;;;;;23.00;19.25;;;;;18.80;57.05;101361.41;5078452;27;45354;-78
2021/06/23 03:59:10;;;;;;;;;29.50;23.00;;;;;18.79;57.10;101357.03;5081214;27;44646;-78
2021/06/23 04:01:35;;;;;;;;;28.50;22.75;;;;;18.78;57.30;101364.22;5078940;28;45572;-78
2021/06/23 04:04:01;;;;;;;;;26.00;24.00;;;;;18.74;57.49;101364.66;5080219;27;45428;-77
2021/06/23 04:06:31;;;;;;;;;20.75;19.25;;;;;18.74;57.49;101362.81;5081979;28;46004;-78
2021/06/23 04:08:56;;;;;;;;;29.00;23.75;;;;;18.72;57.71;101367.47;5077824;28;45865;-78
2021/06/23 04:11:21;;;;;;;;;26.00;19.50;;;;;18.74;57.26;101370.84;5082330;28;45484;-78
2021/06/23 04:13:47;;;;;;;;;22.50;21.00;;;;;18.72;57.46;101371.97;5082103;28;45436;-78
2021/06/23 04:16:12;;;;;;;;;29.00;21.75;;;;;18.74;57.05;101372.69;5083530;28;45239;-78
2021/06/23 04:18:38;;;;;;;;;28.00;18.00;;;;;18.72;57.82;101367.47;5084711;27;45377;-78
2021/06/23 04:21:04;;;;;;;;;26.00;22.00;;;;;18.76;57.07;101373.34;5083111;28;45370;-78
2021/06/23 04:23:30;;;;;;;;;26.75;23.25;;;;;18.76;57.25;101376.88;5086660;28;45623;-77
2021/06/23 04:25:55;;;;;;;;;26.25;22.25;;;;;18.76;57.38;101378.72;5085469;27;45566;-78
2021/06/23 04:28:20;;;;;;;;;28.00;23.75;;;;;18.80;57.01;101374.78;5083570;27;45259;-77
2021/06/23 04:30:46;;;;;;;;;29.75;24.00;;;;;18.81;57.37;101385.34;5083743;28;45303;-79
2021/06/23 04:33:11;;;;;;;;;22.00;20.75;;;;;18.81;57.47;101387.19;5080849;28;45596;-78
2021/06/23 04:35:37;;;;;;;;;24.00;21.00;;;;;18.81;57.09;101392.53;5083530;28;48256;-79
2021/06/23 04:38:03;;;;;;;;;25.00;22.50;;;;;18.79;57.35;101389.16;5087632;27;45179;-79
2021/06/23 04:40:28;;;;;;;;;24.00;21.50;;;;;18.78;57.70;101390.97;5082520;28;45332;-79
2021/06/23 04:42:53;;;;;;;;;24.00;21.25;;;;;18.76;57.46;101390.25;5081078;27;45603;-79
2021/06/23 04:45:19;;;;;;;;;25.75;22.25;;;;;18.74;57.08;101394.09;5082085;28;45468;-78
2021/06/23 04:47:44;;;;;;;;;23.75;16.75;;;;;18.72;57.14;101388.03;5082934;27;45394;-79
2021/06/23 04:50:10;;;;;;;;;26.50;22.75;;;;;18.68;57.14;101393.66;5083384;27;45373;-78
2021/06/23 04:52:37;;;;;;;;;23.75;19.25;;;;;18.68;57.46;101396.31;5082889;27;45434;-79
2021/06/23 04:55:04;;;;;;;;;31.75;22.75;;;;;18.68;57.14;101395.47;5079073;28;48512;-78
2021/06/23 04:57:30;;;;;;;;;20.50;19.25;;;;;18.70;57.49;101390.84;5079842;28;45875;-78
2021/06/23 04:59:55;;;;;;;;;25.75;21.75;;;;;18.69;57.65;101390.00;5082628;28;45260;-78
2021/06/23 05:02:20;;;;;;;;;25.00;22.00;;;;;18.72;57.65;101388.88;5080682;28;46023;-79
2021/06/23 05:04:47;;;;;;;;;24.50;21.25;;;;;18.73;57.34;101397.75;5081583;27;46445;-79
2021/06/23 05:07:12;;;;;;;;;28.75;23.50;;;;;18.76;58.35;101400.97;5079525;28;45283;-78
2021/06/23 05:09:38;;;;;;;;;31.25;24.00;;;;;18.76;57.75;101392.94;5082532;27;45414;-79
2021/06/23 05:12:05;;;;;;;;;30.75;22.25;;;;;18.77;57.56;101399.97;5082601;27;45393;-79
2021/06/23 05:14:31;;;;;;;;;33.25;24.50;;;;;18.80;57.43;101405.06;5079752;28;47555;-79
2021/06/23 05:16:57;;;;;;;;;32.00;25.25;;;;;18.81;57.87;101408.59;5078587;28;45349;-79
2021/06/23 05:19:22;;;;;;;;;35.00;24.00;;;;;18.81;57.20;101400.56;5080812;28;45499;-79
2021/06/23 05:21:49;;;;;;;;;23.75;21.00;;;;;18.80;57.61;101406.88;5079633;28;45864;-79
2021/06/23 05:24:15;;;;;;;;;26.25;21.00;;;;;18.79;57.51;101411.41;5079427;28;48041;-79
2021/06/23 05:26:40;;;;;;;;;33.75;24.50;;;;;18.78;57.52;101409.69;5078908;28;45520;-79
2021/06/23 05:29:06;;;;;;;;;27.00;22.25;;;;;18.78;57.74;101422.22;5081077;28;45487;-79
2021/06/23 05:31:31;;;;;;;;;28.00;24.00;;;;;18.80;57.80;101417.59;5081924;27;45199;-79
2021/06/23 05:33:56;;;;;;;;;26.25;24.25;;;;;18.82;57.87;101418.31;5072022;28;46497;-78
2021/06/23 05:36:22;;;;;;;;;26.00;22.50;;;;;18.84;57.56;101419.03;5074838;27;45386;-78
2021/06/23 05:38:48;;;;;;;;;34.00;24.50;;;;;18.84;57.55;101421.69;5082647;28;45465;-80
2021/06/23 05:41:14;;;;;;;;;30.00;25.75;;;;;18.85;57.54;101423.34;5081620;28;46837;-78
2021/06/23 05:43:39;;;;;;;;;20.75;20.75;;;;;18.83;57.64;101423.53;5083211;27;46219;-78
2021/06/23 05:46:05;;;;;;;;;30.75;23.00;;;;;18.82;57.60;101421.84;5072250;28;45334;-78
2021/06/23 05:48:31;;;;;;;;;29.25;21.50;;;;;18.82;57.57;101426.34;5096009;27;45385;-78
2021/06/23 05:50:56;;;;;;;;;29.75;25.50;;;;;18.81;57.57;101421.97;5080582;27;45449;-78
2021/06/23 05:53:22;;;;;;;;;29.00;22.25;;;;;18.81;57.18;101419.28;5081679;27;45564;-77
2021/06/23 05:55:47;;;;;;;;;28.50;23.25;;;;;18.83;57.01;101431.56;5083986;28;45488;-77
2021/06/23 05:58:13;;;;;;;;;25.25;23.25;;;;;18.86;57.50;101423.22;5086352;28;45536;-78
2021/06/23 06:00:38;;;;;;;;;27.75;19.75;;;;;18.87;57.56;101421.41;5087230;28;45387;-78
2021/06/23 06:03:05;;;;;;;;;32.75;25.00;;;;;18.88;57.50;101426.63;5072412;27;46194;-78
2021/06/23 06:05:31;;;;;;;;;28.50;22.25;;;;;18.89;57.40;101428.31;5071226;28;47363;-78
2021/06/23 06:07:56;;;;;;;;;25.50;20.50;;;;;18.94;57.94;101430.53;5080092;27;45548;-79
2021/06/23 06:10:22;;;;;;;;;29.00;20.25;;;;;18.95;57.42;101435.75;5078795;28;45366;-78
2021/06/23 06:12:47;;;;;;;;;27.75;22.50;;;;;18.96;56.98;101440.13;5079192;28;47561;-78
2021/06/23 06:15:13;;;;;;;;;23.75;20.75;;;;;18.97;57.02;101440.97;5081016;28;45265;-78
2021/06/23 06:17:39;;;;;;;;;27.75;22.25;;;;;19.00;57.39;101446.06;5081416;27;45482;-79
2021/06/23 06:20:06;;;;;;;;;25.50;22.75;;;;;19.02;56.87;101450.28;5087365;27;45625;-78
2021/06/23 06:22:32;;;;;;;;;27.00;23.25;;;;;19.06;57.36;101450.84;5084375;27;46163;-77
2021/06/23 06:24:58;;;;;;;;;25.25;20.50;;;;;19.06;56.94;101451.69;5078882;28;45521;-78
2021/06/23 06:27:23;;;;;;;;;23.00;21.75;;;;;19.05;57.10;101454.50;5079609;28;45485;-79
2021/06/23 06:29:49;;;;;;;;;27.00;23.25;;;;;19.04;56.64;101458.16;5078503;28;45327;-78
2021/06/23 06:32:14;;;;;;;;;24.75;20.50;;;;;19.03;56.86;101464.50;5076290;28;47137;-79
2021/06/23 06:34:39;;;;;;;;;29.50;21.50;;;;;19.02;56.52;101462.84;5080133;28;45226;-78
2021/06/23 06:37:05;;;;;;;;;28.75;25.00;;;;;19.03;56.42;101464.50;5081174;27;45444;-79
2021/06/23 06:39:30;;;;;;;;;23.25;19.00;;;;;19.05;57.19;101459.84;5083352;28;46215;-83
2021/06/23 06:41:56;;;;;;;;;24.00;20.25;;;;;19.13;56.70;101464.50;5082148;28;47012;-81
2021/06/23 06:44:22;;;;;;;;;25.00;21.50;;;;;19.15;57.14;101466.06;5079648;27;45324;-81
2021/06/23 06:46:47;;;;;;;;;25.75;22.00;;;;;19.18;56.50;101467.63;5081967;28;45387;-81
2021/06/23 06:49:13;;;;;;;;;27.00;25.00;;;;;19.17;56.33;101466.78;5080106;28;45441;-82
2021/06/23 06:51:39;;;;;;;;;34.25;26.00;;;;;19.20;56.81;101479.03;5078637;28;47838;-82
2021/06/23 06:54:04;;;;;;;;;30.50;24.25;;;;;19.19;56.95;101475.50;5079702;28;45835;-79
2021/06/23 06:56:30;;;;;;;;;29.25;24.25;;;;;19.20;56.97;101473.69;5076376;28;46347;-81
2021/06/23 06:58:55;;;;;;;;;30.25;23.50;;;;;19.18;57.07;101475.66;5082187;28;45510;-81
2021/06/23 07:01:21;;;;;;;;;34.00;28.00;;;;;19.17;56.81;101471.28;5080298;28;47360;-81
2021/06/23 07:03:46;;;;;;;;;30.50;26.50;;;;;19.17;57.64;101474.81;5083064;28;45477;-80
2021/06/23 07:06:11;;;;;;;;;27.25;22.50;;;;;19.19;57.66;101467.47;5081846;27;45360;-80
2021/06/23 07:08:37;;;;;;;;;39.50;26.75;;;;;19.20;57.52;101481.72;5078121;27;45453;-81
2021/06/23 07:11:02;;;;;;;;;30.00;24.50;;;;;19.20;57.48;101479.03;5080311;28;47380;-81
2021/06/23 07:13:28;;;;;;;;;34.75;24.50;;;;;19.23;57.80;101487.63;5081952;27;45361;-81
2021/06/23 07:15:53;;;;;;;;;32.50;24.75;;;;;19.20;57.12;101474.53;5081765;28;45269;-81
2021/06/23 07:18:19;;;;;;;;;39.75;29.25;;;;;19.19;57.01;101478.19;5083612;28;45427;-81
2021/06/23 07:20:44;;;;;;;;;35.00;27.25;;;;;19.19;56.84;101488.06;5079627;28;45319;-81
2021/06/23 07:23:09;;;;;;;;;29.50;23.25;;;;;19.25;56.76;101488.31;5081729;27;45401;-81
2021/06/23 07:25:35;;;;;;;;;30.00;27.00;;;;;19.29;56.57;101487.06;5092079;27;45354;-81
2021/06/23 07:28:01;;;;;;;;;33.50;28.00;;;;;19.29;56.84;101489.75;5081234;27;45268;-81
2021/06/23 07:30:27;;;;;;;;;23.50;21.25;;;;;19.30;56.82;101486.06;5076519;27;46171;-81
2021/06/23 07:32:56;;;;;;;;;30.75;24.50;;;;;19.28;59.11;101497.91;5069455;28;45511;-81
2021/06/23 07:38:13;;;;;;;;;25.25;22.25;;;;;19.30;57.07;101494.09;5082187;28;46744;-80
2021/06/23 07:43:23;;;;;;;;;24.25;20.75;;;;;19.33;56.41;101493.81;5071386;28;45313;-82
2021/06/23 07:45:52;;;;;;;;;35.75;25.25;;;;;19.41;56.62;101496.63;5076323;28;45429;-79
2021/06/23 07:48:21;;;;;;;;;26.00;23.00;;;;;19.53;56.36;101502.72;5077896;28;45554;-80
2021/06/23 07:50:51;;;;;;;;;25.25;19.00;;;;;19.56;55.81;101494.41;5079461;27;45487;-80
2021/06/23 07:53:56;;;;;;;;;23.75;19.25;;;;;19.54;55.54;101495.53;5079691;27;45565;-80
2021/06/23 07:56:08;;;;;;;;;31.50;22.50;;;;;19.54;55.42;101495.53;5078935;27;45726;-80
2021/06/23 08:09:41;;;;;;;;;31.75;25.50;;;;;19.65;55.86;101500.72;5077971;28;45595;-79
2021/06/23 08:12:17;;;;;;;;;18.00;15.75;;;;;19.69;55.65;101505.66;5078183;28;47688;-80
2021/06/23 08:14:42;;;;;;;;;25.25;22.75;;;;;19.76;55.38;101505.91;5078978;27;46292;-80
2021/06/23 08:17:08;;;;;;;;;32.25;26.00;;;;;19.80;55.22;101504.66;5077927;28;45913;-80
2021/06/23 08:19:33;;;;;;;;;30.00;22.00;;;;;19.82;54.81;101500.00;5079771;28;45395;-81
2021/06/23 08:21:59;;;;;;;;;26.50;20.25;;;;;19.84;54.65;101506.06;5079185;27;45648;-81
2021/06/23 08:24:24;;;;;;;;;22.25;19.75;;;;;19.88;54.68;101504.75;5080179;27;45471;-81
2021/06/23 08:26:50;;;;;;;;;21.00;18.75;;;;;19.91;54.44;101504.47;5079892;27;45311;-81
2021/06/23 08:29:15;;;;;;;;;22.50;17.25;;;;;19.90;54.45;101501.94;5078724;28;45444;-81
2021/06/23 08:31:41;;;;;;;;;22.00;21.00;;;;;19.90;54.15;101509.97;5070050;27;46194;-80
2021/06/23 08:34:06;;;;;;;;;25.75;20.75;;;;;19.91;54.38;101506.31;5076245;27;46025;-79
2021/06/23 08:36:32;;;;;;;;;28.00;21.00;;;;;19.93;53.88;101510.56;5077517;27;45566;-79
2021/06/23 08:38:57;;;;;;;;;21.50;20.25;;;;;19.98;54.19;101504.72;5078041;28;45517;-79
2021/06/23 08:41:26;;;;;;;;;22.50;17.75;;;;;20.01;53.81;101509.81;5076304;27;47144;-79
2021/06/23 08:43:58;;;;;;;;;22.75;20.00;;;;;20.03;53.93;101500.63;5073771;27;45525;-84
2021/06/23 08:46:25;;;;;;;;;24.25;20.25;;;;;20.10;53.97;101503.56;5077039;27;45408;-84
2021/06/23 08:48:51;;;;;;;;;21.00;18.50;;;;;20.17;53.20;101502.00;5078025;28;45466;-80
2021/06/23 08:51:17;;;;;;;;;19.75;18.75;;;;;20.20;53.39;101503.53;5078675;27;45564;-81
2021/06/23 08:53:42;;;;;;;;;25.00;21.00;;;;;20.24;53.44;101499.56;5080386;28;45858;-80
2021/06/23 08:56:08;;;;;;;;;22.25;19.50;;;;;20.31;53.38;101506.84;5081853;28;45214;-80
2021/06/23 08:58:34;;;;;;;;;24.75;20.75;;;;;20.33;53.21;101507.56;5081010;27;45195;-81
2021/06/23 09:01:00;;;;;;;;;27.25;23.25;;;;;20.35;53.23;101502.94;5084427;28;46762;-81
2021/06/23 09:03:25;;;;;;;;;22.50;22.00;;;;;20.38;52.65;101505.34;5082144;28;45354;-80
2021/06/23 09:05:59;;;;;;;;;25.50;21.25;;;;;20.42;52.54;101508.53;5081773;28;45627;-81
2021/06/23 09:08:36;;;;;;;;;24.00;20.50;;;;;20.51;52.80;101507.66;5082848;27;45454;-81
2021/06/23 09:11:12;;;;;;;;;19.00;18.00;;;;;20.61;53.04;101511.13;5081759;28;46370;-80
2021/06/23 09:13:38;;;;;;;;;22.50;19.50;;;;;20.73;52.58;101506.41;5082590;27;45533;-81
2021/06/23 09:16:03;;;;;;;;;24.50;21.50;;;;;20.82;52.34;101498.28;5081529;28;45424;-81
2021/06/23 09:18:34;;;;;;;;;21.75;18.25;;;;;20.91;51.91;101510.81;5084206;27;45298;-81
2021/06/23 09:21:15;;;;;;;;;20.75;17.75;;;;;20.98;51.75;101513.72;5085194;27;45562;-81
2021/06/23 09:23:58;;;;;;;;;25.50;20.50;;;;;21.02;51.57;101516.97;5083998;27;45253;-81
2021/06/23 09:26:38;;;;;;;;;23.75;17.50;;;;;21.02;51.04;101525.00;5081861;28;45437;-81
2021/06/23 09:29:13;;;;;;;;;23.75;17.75;;;;;21.03;51.22;101526.72;5081353;28;45706;-81
2021/06/23 09:32:01;;;;;;;;;25.00;21.25;;;;;20.96;51.25;101518.38;5081783;27;45278;-81
2021/06/23 09:34:31;;;;;;;;;22.75;19.50;;;;;20.95;51.07;101523.91;5080040;27;45676;-81
2021/06/23 09:36:56;;;;;;;;;22.25;19.75;;;;;20.91;51.33;101518.88;5081887;28;45347;-81
2021/06/23 09:39:42;;;;;;;;;19.00;17.50;;;;;20.88;51.45;101518.31;5083763;28;45376;-81
2021/06/23 09:42:08;;;;;;;;;23.00;19.00;;;;;20.87;51.10;101520.16;5081476;27;46529;-81
2021/06/23 09:44:33;;;;;;;;;18.75;16.75;;;;;20.92;51.43;101517.03;5083732;28;45236;-81
2021/06/23 09:46:59;;;;;;;;;26.25;20.00;;;;;21.03;50.78;101515.97;5098231;27;45478;-81
2021/06/23 09:49:27;;;;;;;;;24.50;21.25;;;;;21.17;50.69;101502.00;5082239;28;45481;-81
2021/06/23 09:52:12;;;;;;;;;16.50;14.75;;;;;21.28;50.74;101512.53;5080730;28;47446;-81
2021/06/23 09:54:55;;;;;;;;;24.25;18.50;;;;;21.38;50.92;101509.78;5082182;28;45505;-82
2021/06/23 09:57:21;;;;;;;;;16.50;16.25;;;;;21.47;50.08;101511.53;5081880;28;45374;-81
2021/06/23 10:02:23;;;;;;;;;22.25;19.00;;;;;21.48;50.15;101515.91;5085563;28;45393;-81
2021/06/23 10:04:49;;;;;;;;;25.25;19.75;;;;;21.41;50.33;101510.28;5081037;28;45364;-81
2021/06/23 10:07:45;;;;;;;;;22.00;19.25;;;;;21.39;50.54;101512.31;5091319;27;45278;-81
2021/06/23 10:10:20;;;;;;;;;26.50;21.25;;;;;21.34;50.18;101514.59;5067371;28;45414;-81
2021/06/23 10:12:50;;;;;;;;;22.50;22.50;;;;;21.30;49.97;101518.63;5081773;27;45386;-81
2021/06/23 10:15:16;;;;;;;;;28.75;25.25;;;;;21.27;50.27;101513.53;5080178;28;45413;-81
2021/06/23 10:17:43;;;;;;;;;27.75;21.00;;;;;21.27;50.27;101524.28;5081661;28;45502;-81
2021/06/23 10:20:09;;;;;;;;;23.25;19.75;;;;;21.24;50.22;101521.91;5081134;27;45464;-81
2021/06/23 10:22:35;;;;;;;;;18.75;16.75;;;;;21.20;50.51;101521.38;5081925;27;45988;-83
2021/06/23 10:25:05;;;;;;;;;24.50;21.50;;;;;21.22;50.85;101527.41;5080934;28;47717;-83
2021/06/23 10:27:33;;;;;;;;;26.00;21.50;;;;;21.24;50.07;101519.19;5080915;27;45442;-82
2021/06/23 10:30:01;;;;;;;;;26.50;23.75;;;;;21.25;50.71;101516.38;5079684;27;45173;-80
2021/06/23 10:32:27;;;;;;;;;21.00;21.00;;;;;21.28;50.35;101526.81;5077021;28;48146;-82
2021/06/23 10:34:52;;;;;;;;;21.00;19.00;;;;;21.31;50.55;101516.75;5079996;27;45497;-81
2021/06/23 10:37:22;;;;;;;;;24.75;18.75;;;;;21.32;50.19;101521.97;5081680;28;45449;-80
2021/06/23 10:39:48;;;;;;;;;22.25;21.00;;;;;21.31;50.46;101531.00;5081865;28;45236;-81
2021/06/23 10:42:15;;;;;;;;;24.25;20.75;;;;;21.22;50.22;101518.50;5085494;28;47126;-80
2021/06/23 10:44:44;;;;;;;;;25.75;23.50;;;;;21.19;50.47;101534.94;5084472;28;45290;-80
2021/06/23 10:47:30;;;;;;;;;25.75;20.75;;;;;21.20;50.50;101533.97;5079548;28;45773;-79
2021/06/23 10:49:56;;;;;;;;;28.25;20.00;;;;;21.23;50.90;101533.63;5075606;28;45439;-79
2021/06/23 10:52:21;;;;;;;;;22.00;18.00;;;;;21.26;50.57;101531.50;5081029;27;45374;-79
2021/06/23 10:54:50;;;;;;;;;28.25;21.50;;;;;21.26;50.46;101533.34;5080864;27;45308;-81
2021/06/23 10:57:30;;;;;;;;;20.50;20.00;;;;;21.32;50.20;101537.25;5080958;27;45409;-79
2021/06/23 10:59:58;;;;;;;;;27.25;26.00;;;;;21.39;50.46;101538.34;5080937;28;45329;-80
2021/06/23 11:02:59;;;;;;;;;24.00;22.25;;;;;21.44;50.34;101534.16;5078046;27;45503;-79
2021/06/23 11:05:36;;;;;;;;;26.50;23.75;;;;;21.53;50.03;101532.41;5080513;28;45579;-79
2021/06/23 11:08:20;;;;;;;;;22.75;18.25;;;;;21.62;49.68;101534.16;5076870;28;45515;-79
2021/06/23 11:10:47;;;;;;;;;20.00;17.00;;;;;21.71;49.85;101540.44;5078027;28;45468;-79
2021/06/23 11:13:18;;;;;;;;;21.75;19.00;;;;;21.77;49.55;101545.19;5079403;27;45432;-78
2021/06/23 11:15:46;;;;;;;;;24.75;20.00;;;;;21.79;49.13;101544.03;5075849;28;45651;-79
2021/06/23 11:18:31;;;;;;;;;17.50;16.50;;;;;21.74;49.25;101553.56;5079731;28;45409;-82
2021/06/23 11:21:03;;;;;;;;;23.50;19.25;;;;;21.70;50.01;101552.19;5079363;27;45441;-85
2021/06/23 11:23:42;;;;;;;;;27.25;20.75;;;;;21.73;49.21;101559.94;5081764;28;46734;-78
2021/06/23 11:26:09;;;;;;;;;21.50;19.00;;;;;21.70;49.37;101561.09;5079514;27;45335;-78
2021/06/23 11:28:35;;;;;;;;;22.00;17.25;;;;;21.70;49.25;101558.41;5079041;28;45486;-78
2021/06/23 11:31:07;;;;;;;;;24.25;18.75;;;;;21.67;49.47;101553.34;5072627;27;45540;-78